BioMed Realty Trust, Inc. (NYSE:BMR)

CAPS Rating: 3 out of 5

The Company is a real estate investment trust, or REIT, focused on acquiring, developing, owning, leasing and managing laboratory and office space for the life science industry.

Results 1 - 90 of 97
Top
Pick
Member Name Member
Rating
Start
Date
Call Time
Frame
Start
Price
Stock
Gain
Index
Gain
Score Commentary
mrbill6 < 20 7/29/2015 1/26/2016 Outperform 3W $21.03 +13.19% -12.89% +26.08 0 Comment
kurtdabear 36.56 7/22/2015 Outperform 5Y $20.30 +17.30% -13.19% +30.49 0 Comment
ELPastor < 20 3/6/2015 Outperform 5Y $20.69 +15.07% -12.44% +27.52 0 Comment
KingMinusTouch < 20 2/12/2015 Outperform 5Y $21.95 +8.46% -11.80% +20.26 0 Comment
libot 61.44 1/26/2015 Outperform 3Y $23.74 +0.32% -10.26% +10.57 1 Comment
This player feels very strongly about this pick and has marked it a Top Pick. Top Picks do not affect a player’s score. lumike < 20 12/30/2014 Outperform 5Y $20.80 +14.49% -11.94% +26.42 0 Comment
lillasfool 88.73 8/26/2014 Outperform 5Y $20.62 +15.46% -8.59% +24.04 0 Comment
Bilybaobao 49.33 6/16/2014 Outperform 5Y $20.21 +17.79% -5.43% +23.22 0 Comment
cthomas1017 99.71 12/13/2013 Underperform 5Y $16.11 +47.77% +2.72% -45.05 0 Comment
F4Phanatic 23.21 10/4/2010 10/15/2013 Outperform 3Y $14.22 +67.39% +60.32% +7.07 0 Comment
LearnToFish < 20 8/22/2013 Outperform 5Y $16.07 +48.13% +11.19% +36.94 0 Comment
T206 70.33 7/22/2013 Outperform 5Y $18.87 +26.19% +8.13% +18.06 1 Comment
jaybird43 22.85 5/20/2013 Underperform NS $19.69 +20.95% +9.94% -11.01 1 Comment
UpDownStock 92.86 9/24/2012 Outperform 5Y $16.19 +47.09% +26.19% +20.90 0 Comment
dwn88ir 67.85 5/14/2012 Outperform 5Y $16.11 +47.78% +36.52% +11.26 0 Comment
dng88et 65.19 3/26/2012 Outperform 5Y $15.79 +50.77% +30.18% +20.59 0 Comment
JOSEPHHO 24.47 12/5/2011 Outperform 3W $14.78 +61.05% +44.45% +16.61 0 Comment
WORKofART 96.76 3/21/2011 Outperform 5Y $14.16 +68.18% +41.75% +26.43 0 Comment
eddrom 97.80 1/26/2011 Outperform 5Y $14.16 +68.18% +41.53% +26.66 0 Comment
ChampStamp < 20 10/27/2010 Outperform 3W $14.49 +64.33% +55.53% +8.79 0 Comment
Gemini846 88.61 8/30/2010 Outperform 3M $13.04 +82.57% +73.65% +8.92 1 Comment
RedChile3 < 20 8/25/2010 Outperform 3Y $12.76 +86.66% +74.26% +12.40 0 Comment
zkoticha < 20 6/21/2010 Outperform 5Y $13.78 +72.74% +63.93% +8.81 0 Comment
retiredCAPS 26.97 6/1/2010 Outperform 5Y $12.90 +84.58% +69.15% +15.43 0 Comment
DLZtheBestOf < 20 5/17/2010 Outperform 5Y $13.59 +75.17% +60.56% +14.61 0 Comment
baselineace20 < 20 4/30/2010 Outperform 5Y $14.86 +60.19% +51.69% +8.51 0 Comment
alexpaz 29.58 4/22/2009 4/18/2010 Underperform 5Y $6.89 +245.34% +119.80% -125.55 0 Comment
SetFireToReason < 20 2/10/2010 Outperform 5Y $10.18 +133.97% +71.28% +62.68 0 Comment
This player feels very strongly about this pick and has marked it a Top Pick. Top Picks do not affect a player’s score. gartersnk 59.08 2/5/2010 Outperform 5Y $10.57 +125.23% +73.00% +52.23 0 Comment
justliquidation < 20 10/27/2009 Outperform 5Y $10.20 +133.36% +71.32% +62.04 0 Comment
xinetic < 20 10/16/2009 Outperform 1Y $9.78 +143.41% +68.53% +74.88 0 Comment
bankswillfail 43.56 10/5/2009 Underperform 5Y $9.68 +146.07% +78.19% -67.87 0 Comment
stockcaps360 < 20 9/8/2009 Outperform 5Y $9.49 +150.92% +79.25% +71.67 0 Comment
GraemesPSP 99.84 8/28/2009 Outperform 5Y $10.12 +135.19% +76.76% +58.43 0 Comment
Wickedation < 20 7/22/2009 Outperform 5Y $8.03 +196.44% +93.99% +102.46 0 Comment
NeverShort 99.10 7/10/2009 Outperform 5Y $7.11 +235.09% +110.03% +125.06 0 Comment
JtHREIT 98.00 6/23/2009 Outperform 5Y $7.03 +238.81% +105.91% +132.90 0 Comment
noescaper 27.69 6/23/2009 Underperform 3W $7.06 +237.38% +105.91% -131.47 0 Comment
wingsofpastrami 97.56 6/15/2009 Outperform 1Y $7.58 +214.03% +97.16% +116.87 0 Comment
AlwaysOceanside 94.33 6/15/2009 Outperform 5Y $7.58 +214.03% +97.16% +116.87 0 Comment
SSPX0 95.18 6/8/2009 Outperform 5Y $7.79 +205.70% +97.43% +108.27 0 Comment
SSPX9 96.27 5/26/2009 Outperform NS $7.60 +213.12% +109.72% +103.40 0 Comment
ProCreditXpress 97.87 5/26/2009 Outperform NS $7.60 +213.12% +109.72% +103.40 0 Comment
GreatDepression2 26.22 5/21/2009 Underperform NS $7.77 +206.27% +107.35% -98.92 0 Comment
HCathe2057 < 20 5/18/2009 Outperform 1Y $7.53 +216.19% +106.89% +109.30 0 Comment
EatYouLunch 28.28 5/13/2009 Underperform 5Y $7.40 +221.56% +109.24% -112.32 0 Comment
Collin757 < 20 5/4/2009 Underperform NS $8.58 +177.53% +109.23% -68.29 0 Comment
nico75 26.18 4/23/2009 Underperform NS $7.18 +231.49% +118.71% -112.78 0 Comment
OverHeld 44.08 4/20/2009 Underperform NS $7.00 +240.25% +121.19% -119.06 0 Comment
RandolphFL 24.12 3/23/2009 Underperform NS $4.34 +448.45% +130.99% -317.47 0 Comment
Religulous < 20 3/23/2009 Underperform NS $4.61 +416.59% +135.30% -281.29 0 Comment
This player feels very strongly about this pick and has marked it a Top Pick. Top Picks do not affect a player’s score. JakilaTheHun 99.92 3/19/2009 Outperform 5Y $4.82 +393.93% +135.57% +258.36 1 Comment
mdhighdividend 96.70 3/17/2009 Outperform 3W $5.49 +333.71% +142.22% +191.49 0 Comment
pslorenz 95.54 3/2/2009 Outperform 5Y $5.98 +298.40% +157.32% +141.08 1 Comment
OhBeeV 89.87 1/29/2009 Outperform NS $9.17 +159.68% +118.58% +41.10 0 Comment
4st4 88.76 1/9/2009 Outperform NS $8.77 +171.59% +104.70% +66.88 0 Comment
2009picks 94.36 1/2/2009 Outperform NS $8.29 +187.28% +106.32% +80.97 0 Comment
PatternTrader 97.21 12/2/2008 Outperform NS $5.00 +376.00% +125.43% +250.57 0 Comment
Hero4All 30.93 11/4/2008 Outperform 5Y $9.72 +145.03% +90.27% +54.76 0 Comment
puccini3005 31.75 10/21/2008 Outperform 3Y $12.46 +91.02% +92.28% -1.26 1 Comment
uguragust132008 82.58 8/13/2008 Outperform NS $18.08 +31.71% +47.11% -15.40 0 Comment
dcdanb < 20 7/24/2008 Underperform 5Y $17.84 +33.46% +48.57% +15.12 0 Comment
woodruffdavid 62.33 7/22/2008 Outperform 5Y $17.13 +38.97% +51.18% -12.21 0 Comment
umedce 89.90 7/17/2008 Outperform NS $16.79 +41.82% +51.20% -9.38 0 Comment
RFHGMJ 72.58 6/3/2008 7/12/2008 Underperform 1Y $17.19 +38.51% +36.50% -2.00 0 Comment
BetterInvesting < 20 4/21/2008 Outperform 5Y $17.02 +39.92% +37.48% +2.43 0 Comment
utalkalot 98.80 4/2/2008 Outperform NS $16.82 +41.58% +38.53% +3.05 0 Comment
Lowkey86 56.91 3/25/2008 Outperform NS $16.45 +44.77% +41.00% +3.76 0 Comment
megatrade 74.90 3/3/2008 Outperform 3W $14.87 +60.11% +43.80% +16.32 0 Comment
writenowam < 20 12/21/2007 Outperform 3M $15.67 +51.95% +29.66% +22.28 0 Comment
mabryam < 20 11/15/2007 Outperform 1Y $15.24 +56.28% +31.07% +25.21 0 Comment
kimholt11 91.05 10/23/2007 Outperform NS $14.84 +60.45% +26.84% +33.61 0 Comment
2percentmilk 73.25 10/16/2007 Outperform 1Y $15.84 +50.33% +24.41% +25.92 0 Comment
GetInEarly 44.77 10/8/2007 Outperform 5Y $16.91 +40.82% +23.63% +17.19 0 Comment
ThePessimist 99.36 9/7/2007 Outperform 3Y $14.97 +59.10% +31.79% +27.31 0 Comment
ErfanH < 20 8/7/2007 Outperform 1Y $14.93 +59.50% +31.15% +28.35 1 Comment
NytowlRx 78.05 8/2/2007 Outperform 3M $14.03 +69.76% +31.51% +38.25 0 Comment
QuarterWhiskey < 20 8/1/2007 Outperform 5Y $13.86 +71.80% +32.88% +38.92 0 Comment
kbgg 62.13 8/1/2007 Outperform NS $13.97 +70.46% +32.95% +37.51 0 Comment
trucker50 44.33 7/31/2007 Outperform NS $14.06 +69.30% +30.25% +39.05 0 Comment
CAPable < 20 7/26/2007 Outperform 3M $14.11 +68.76% +28.52% +40.25 0 Comment
genpip < 20 7/26/2007 Underperform 1Y $14.21 +67.55% +28.85% -38.70 0 Comment
no1popz < 20 5/7/2007 Outperform 3M $18.65 +27.69% +28.48% -0.79 0 Comment
germey 59.54 5/1/2007 Outperform 3Y $17.96 +32.54% +30.86% +1.68 1 Comment
temperateBull 52.69 4/12/2007 Outperform 3Y $16.98 +40.24% +34.12% +6.12 0 Comment
FreeFlowEthan 65.99 3/12/2007 Outperform 3W $16.56 +43.81% +38.60% +5.20 0 Comment
EBITDA107 47.30 3/12/2007 Outperform 3Y $16.56 +43.81% +38.60% +5.20 1 Comment
NetscribeREIT 41.64 2/16/2007 Outperform 1Y $19.14 +24.37% +33.81% -9.44 2 Comments
horgothjones < 20 2/1/2007 Outperform 5Y $18.56 +28.27% +34.92% -6.65 0 Comment
danslip < 20 10/18/2006 Outperform 3Y $19.59 +21.56% +41.93% -20.37 0 Comment
Results 1 - 90 of 97

Featured Broker Partners